sensor_id;sensor_type;location;lat;lon;timestamp;P1;durP1;ratioP1;P2;durP2;ratioP2
2267;SDS011;11052;43.338;25.502;2022-10-28T00:01:05;1.17;;;1.00;;
2267;SDS011;11052;43.338;25.502;2022-10-28T00:04:02;0.90;;;0.70;;
2267;SDS011;11052;43.338;25.502;2022-10-28T00:06:52;1.53;;;1.43;;
2267;SDS011;11052;43.338;25.502;2022-10-28T00:09:59;1.10;;;0.70;;
2267;SDS011;11052;43.338;25.502;2022-10-28T00:12:48;10.63;;;1.20;;
2267;SDS011;11052;43.338;25.502;2022-10-28T00:15:55;0.80;;;0.67;;
2267;SDS011;11052;43.338;25.502;2022-10-28T00:19:03;1.33;;;1.23;;
2267;SDS011;11052;43.338;25.502;2022-10-28T00:22:11;0.80;;;0.60;;
2267;SDS011;11052;43.338;25.502;2022-10-28T00:24:58;1.17;;;1.07;;
2267;SDS011;11052;43.338;25.502;2022-10-28T00:27:44;1.00;;;0.90;;
2267;SDS011;11052;43.338;25.502;2022-10-28T00:30:55;1.77;;;1.67;;
2267;SDS011;11052;43.338;25.502;2022-10-28T00:33:56;0.70;;;0.60;;
2267;SDS011;11052;43.338;25.502;2022-10-28T00:37:06;1.07;;;1.00;;
2267;SDS011;11052;43.338;25.502;2022-10-28T00:40:14;1.27;;;1.07;;
2267;SDS011;11052;43.338;25.502;2022-10-28T00:43:03;14.30;;;2.17;;
2267;SDS011;11052;43.338;25.502;2022-10-28T00:46:23;1.27;;;1.17;;
2267;SDS011;11052;43.338;25.502;2022-10-28T00:49:24;1.67;;;1.30;;
2267;SDS011;11052;43.338;25.502;2022-10-28T00:52:30;0.97;;;0.80;;
2267;SDS011;11052;43.338;25.502;2022-10-28T00:55:30;1.77;;;1.07;;
2267;SDS011;11052;43.338;25.502;2022-10-28T00:58:39;1.17;;;1.00;;
2267;SDS011;11052;43.338;25.502;2022-10-28T01:01:36;0.70;;;0.50;;
2267;SDS011;11052;43.338;25.502;2022-10-28T01:04:38;1.73;;;1.63;;
2267;SDS011;11052;43.338;25.502;2022-10-28T01:07:43;0.80;;;0.73;;
2267;SDS011;11052;43.338;25.502;2022-10-28T01:11:56;0.80;;;0.70;;
2267;SDS011;11052;43.338;25.502;2022-10-28T01:14:04;1.10;;;1.00;;
2267;SDS011;11052;43.338;25.502;2022-10-28T01:23:41;7.37;;;1.60;;
2267;SDS011;11052;43.338;25.502;2022-10-28T01:26:59;1.53;;;1.37;;
2267;SDS011;11052;43.338;25.502;2022-10-28T01:29:58;1.77;;;1.67;;
2267;SDS011;11052;43.338;25.502;2022-10-28T01:33:00;0.80;;;0.70;;
2267;SDS011;11052;43.338;25.502;2022-10-28T01:36:04;1.33;;;1.23;;
2267;SDS011;11052;43.338;25.502;2022-10-28T01:39:05;0.83;;;0.80;;
2267;SDS011;11052;43.338;25.502;2022-10-28T01:42:00;1.20;;;1.10;;
2267;SDS011;11052;43.338;25.502;2022-10-28T01:45:11;2.27;;;1.43;;
2267;SDS011;11052;43.338;25.502;2022-10-28T01:48:13;0.87;;;0.83;;
2267;SDS011;11052;43.338;25.502;2022-10-28T01:51:18;1.57;;;1.47;;
2267;SDS011;11052;43.338;25.502;2022-10-28T01:54:31;0.80;;;0.73;;
2267;SDS011;11052;43.338;25.502;2022-10-28T01:57:40;1.30;;;1.07;;
2267;SDS011;11052;43.338;25.502;2022-10-28T02:01:47;2.20;;;2.00;;
2267;SDS011;11052;43.338;25.502;2022-10-28T02:03:45;3.00;;;1.00;;
2267;SDS011;11052;43.338;25.502;2022-10-28T02:06:43;1.10;;;1.00;;
2267;SDS011;11052;43.338;25.502;2022-10-28T02:09:50;1.30;;;0.90;;
2267;SDS011;11052;43.338;25.502;2022-10-28T02:12:53;0.90;;;0.70;;
2267;SDS011;11052;43.338;25.502;2022-10-28T02:16:01;1.13;;;1.00;;
2267;SDS011;11052;43.338;25.502;2022-10-28T02:19:00;1.00;;;0.73;;
2267;SDS011;11052;43.338;25.502;2022-10-28T02:22:06;0.83;;;0.73;;
2267;SDS011;11052;43.338;25.502;2022-10-28T02:25:20;1.27;;;1.00;;
2267;SDS011;11052;43.338;25.502;2022-10-28T02:28:24;0.80;;;0.70;;
2267;SDS011;11052;43.338;25.502;2022-10-28T02:31:33;0.87;;;0.80;;
2267;SDS011;11052;43.338;25.502;2022-10-28T02:34:44;1.03;;;0.97;;
2267;SDS011;11052;43.338;25.502;2022-10-28T02:37:47;3.23;;;1.57;;
2267;SDS011;11052;43.338;25.502;2022-10-28T02:40:52;1.63;;;1.23;;
2267;SDS011;11052;43.338;25.502;2022-10-28T02:44:04;1.20;;;1.10;;
2267;SDS011;11052;43.338;25.502;2022-10-28T02:47:14;1.07;;;0.97;;
2267;SDS011;11052;43.338;25.502;2022-10-28T02:50:28;1.43;;;0.93;;
2267;SDS011;11052;43.338;25.502;2022-10-28T02:53:31;2.10;;;1.90;;
2267;SDS011;11052;43.338;25.502;2022-10-28T02:56:36;0.83;;;0.77;;
2267;SDS011;11052;43.338;25.502;2022-10-28T02:59:41;1.37;;;1.27;;
2267;SDS011;11052;43.338;25.502;2022-10-28T03:02:38;0.80;;;0.80;;
2267;SDS011;11052;43.338;25.502;2022-10-28T03:05:40;1.30;;;1.20;;
2267;SDS011;11052;43.338;25.502;2022-10-28T03:08:30;0.97;;;0.87;;
2267;SDS011;11052;43.338;25.502;2022-10-28T03:11:37;1.30;;;1.10;;
2267;SDS011;11052;43.338;25.502;2022-10-28T03:14:26;1.97;;;1.83;;
2267;SDS011;11052;43.338;25.502;2022-10-28T03:17:25;1.57;;;1.03;;
2267;SDS011;11052;43.338;25.502;2022-10-28T03:20:35;1.20;;;0.80;;
2267;SDS011;11052;43.338;25.502;2022-10-28T03:23:42;1.77;;;1.20;;
2267;SDS011;11052;43.338;25.502;2022-10-28T03:26:53;1.73;;;1.17;;
2267;SDS011;11052;43.338;25.502;2022-10-28T03:29:41;1.37;;;1.27;;
2267;SDS011;11052;43.338;25.502;2022-10-28T03:32:34;3.93;;;3.63;;
2267;SDS011;11052;43.338;25.502;2022-10-28T03:35:41;1.20;;;1.10;;
2267;SDS011;11052;43.338;25.502;2022-10-28T03:38:31;2.50;;;2.03;;
2267;SDS011;11052;43.338;25.502;2022-10-28T03:41:38;2.60;;;2.40;;
2267;SDS011;11052;43.338;25.502;2022-10-28T03:44:45;1.37;;;1.27;;
2267;SDS011;11052;43.338;25.502;2022-10-28T03:47:51;2.13;;;1.53;;
2267;SDS011;11052;43.338;25.502;2022-10-28T03:50:42;2.03;;;1.90;;
2267;SDS011;11052;43.338;25.502;2022-10-28T03:53:25;34.87;;;1.90;;
2267;SDS011;11052;43.338;25.502;2022-10-28T03:56:33;0.80;;;0.80;;
2267;SDS011;11052;43.338;25.502;2022-10-28T03:59:37;2.70;;;2.50;;
2267;SDS011;11052;43.338;25.502;2022-10-28T04:02:36;1.53;;;1.43;;
2267;SDS011;11052;43.338;25.502;2022-10-28T04:05:46;1.60;;;1.50;;
2267;SDS011;11052;43.338;25.502;2022-10-28T04:08:45;5.03;;;2.03;;
2267;SDS011;11052;43.338;25.502;2022-10-28T04:11:56;1.53;;;1.43;;
2267;SDS011;11052;43.338;25.502;2022-10-28T04:15:04;6.30;;;4.40;;
2267;SDS011;11052;43.338;25.502;2022-10-28T04:17:59;0.80;;;0.70;;
2267;SDS011;11052;43.338;25.502;2022-10-28T04:20:44;0.80;;;0.80;;
2267;SDS011;11052;43.338;25.502;2022-10-28T04:23:45;1.30;;;1.20;;
2267;SDS011;11052;43.338;25.502;2022-10-28T04:26:42;1.20;;;0.90;;
2267;SDS011;11052;43.338;25.502;2022-10-28T04:29:32;1.13;;;1.03;;
2267;SDS011;11052;43.338;25.502;2022-10-28T04:32:40;50.80;;;2.20;;
2267;SDS011;11052;43.338;25.502;2022-10-28T04:35:50;0.80;;;0.60;;
2267;SDS011;11052;43.338;25.502;2022-10-28T04:38:40;1.90;;;1.47;;
2267;SDS011;11052;43.338;25.502;2022-10-28T04:41:29;1.13;;;1.03;;
2267;SDS011;11052;43.338;25.502;2022-10-28T04:44:39;2.97;;;1.23;;
2267;SDS011;11052;43.338;25.502;2022-10-28T04:47:38;17.33;;;1.27;;
2267;SDS011;11052;43.338;25.502;2022-10-28T04:50:30;0.80;;;0.60;;
2267;SDS011;11052;43.338;25.502;2022-10-28T04:53:19;0.80;;;0.70;;
2267;SDS011;11052;43.338;25.502;2022-10-28T04:56:30;2.20;;;1.73;;
2267;SDS011;11052;43.338;25.502;2022-10-28T04:59:40;2.67;;;2.47;;
2267;SDS011;11052;43.338;25.502;2022-10-28T05:02:47;2.17;;;1.97;;
2267;SDS011;11052;43.338;25.502;2022-10-28T05:05:49;1.43;;;1.33;;
2267;SDS011;11052;43.338;25.502;2022-10-28T05:08:36;1.27;;;1.17;;
2267;SDS011;11052;43.338;25.502;2022-10-28T05:11:46;2.53;;;2.33;;
2267;SDS011;11052;43.338;25.502;2022-10-28T05:14:33;1.17;;;1.07;;
2267;SDS011;11052;43.338;25.502;2022-10-28T05:17:37;1.73;;;1.53;;
2267;SDS011;11052;43.338;25.502;2022-10-28T05:20:28;3.90;;;1.43;;
2267;SDS011;11052;43.338;25.502;2022-10-28T05:23:35;1.37;;;1.27;;
2267;SDS011;11052;43.338;25.502;2022-10-28T05:26:42;1.83;;;1.73;;
2267;SDS011;11052;43.338;25.502;2022-10-28T05:29:49;18.13;;;1.43;;
2267;SDS011;11052;43.338;25.502;2022-10-28T05:33:00;2.30;;;1.87;;
2267;SDS011;11052;43.338;25.502;2022-10-28T05:35:48;2.40;;;1.83;;
2267;SDS011;11052;43.338;25.502;2022-10-28T05:38:55;1.70;;;1.60;;
2267;SDS011;11052;43.338;25.502;2022-10-28T05:41:47;4.10;;;2.13;;
2267;SDS011;11052;43.338;25.502;2022-10-28T05:44:48;1.60;;;1.50;;
2267;SDS011;11052;43.338;25.502;2022-10-28T05:47:48;3.10;;;2.03;;
2267;SDS011;11052;43.338;25.502;2022-10-28T05:50:59;5.43;;;2.97;;
2267;SDS011;11052;43.338;25.502;2022-10-28T05:54:06;2.80;;;2.60;;
2267;SDS011;11052;43.338;25.502;2022-10-28T05:57:09;3.03;;;1.67;;
2267;SDS011;11052;43.338;25.502;2022-10-28T06:00:16;3.03;;;1.93;;
2267;SDS011;11052;43.338;25.502;2022-10-28T06:03:24;3.47;;;2.53;;
2267;SDS011;11052;43.338;25.502;2022-10-28T06:07:22;1.20;;;1.10;;
2267;SDS011;11052;43.338;25.502;2022-10-28T06:09:29;3.37;;;1.30;;
2267;SDS011;11052;43.338;25.502;2022-10-28T06:12:18;2.57;;;2.43;;
2267;SDS011;11052;43.338;25.502;2022-10-28T06:15:28;2.00;;;1.47;;
2267;SDS011;11052;43.338;25.502;2022-10-28T06:18:39;1.33;;;1.23;;
2267;SDS011;11052;43.338;25.502;2022-10-28T06:21:50;2.20;;;1.50;;
2267;SDS011;11052;43.338;25.502;2022-10-28T06:24:57;2.13;;;1.20;;
2267;SDS011;11052;43.338;25.502;2022-10-28T06:28:05;2.47;;;1.70;;
2267;SDS011;11052;43.338;25.502;2022-10-28T06:31:16;2.93;;;1.90;;
2267;SDS011;11052;43.338;25.502;2022-10-28T06:37:22;3.00;;;2.80;;
2267;SDS011;11052;43.338;25.502;2022-10-28T06:40:11;7.50;;;6.47;;
2267;SDS011;11052;43.338;25.502;2022-10-28T06:43:01;16.53;;;7.60;;
2267;SDS011;11052;43.338;25.502;2022-10-28T06:45:54;15.73;;;6.17;;
2267;SDS011;11052;43.338;25.502;2022-10-28T06:48:49;19.23;;;8.10;;
2267;SDS011;11052;43.338;25.502;2022-10-28T06:51:34;9.30;;;4.87;;
2267;SDS011;11052;43.338;25.502;2022-10-28T06:54:02;15.00;;;7.83;;
2267;SDS011;11052;43.338;25.502;2022-10-28T06:56:31;7.87;;;6.10;;
2267;SDS011;11052;43.338;25.502;2022-10-28T06:58:58;1.83;;;1.73;;
2267;SDS011;11052;43.338;25.502;2022-10-28T07:01:25;2.70;;;1.57;;
2267;SDS011;11052;43.338;25.502;2022-10-28T07:03:53;8.40;;;2.77;;
2267;SDS011;11052;43.338;25.502;2022-10-28T07:06:20;1.33;;;1.20;;
2267;SDS011;11052;43.338;25.502;2022-10-28T07:08:47;7.33;;;1.70;;
2267;SDS011;11052;43.338;25.502;2022-10-28T07:11:14;13.10;;;3.60;;
2267;SDS011;11052;43.338;25.502;2022-10-28T07:13:44;1.77;;;1.63;;
2267;SDS011;11052;43.338;25.502;2022-10-28T07:16:11;2.17;;;2.00;;
2267;SDS011;11052;43.338;25.502;2022-10-28T07:18:38;1.33;;;1.23;;
2267;SDS011;11052;43.338;25.502;2022-10-28T07:21:05;2.33;;;2.13;;
2267;SDS011;11052;43.338;25.502;2022-10-28T07:23:32;1.93;;;1.60;;
2267;SDS011;11052;43.338;25.502;2022-10-28T07:26:00;1.50;;;1.37;;
2267;SDS011;11052;43.338;25.502;2022-10-28T07:28:27;1.33;;;1.23;;
2267;SDS011;11052;43.338;25.502;2022-10-28T07:30:59;1.33;;;1.23;;
2267;SDS011;11052;43.338;25.502;2022-10-28T07:33:27;1.47;;;1.37;;
2267;SDS011;11052;43.338;25.502;2022-10-28T07:35:54;8.83;;;2.30;;
2267;SDS011;11052;43.338;25.502;2022-10-28T07:38:22;3.37;;;2.23;;
2267;SDS011;11052;43.338;25.502;2022-10-28T07:40:50;1.43;;;1.33;;
2267;SDS011;11052;43.338;25.502;2022-10-28T07:43:18;2.67;;;1.67;;
2267;SDS011;11052;43.338;25.502;2022-10-28T07:45:45;1.20;;;1.10;;
2267;SDS011;11052;43.338;25.502;2022-10-28T07:48:14;1.50;;;1.30;;
2267;SDS011;11052;43.338;25.502;2022-10-28T07:50:41;1.83;;;1.73;;
2267;SDS011;11052;43.338;25.502;2022-10-28T07:53:09;1.40;;;1.27;;
2267;SDS011;11052;43.338;25.502;2022-10-28T07:55:36;4.30;;;2.50;;
2267;SDS011;11052;43.338;25.502;2022-10-28T07:58:03;1.90;;;1.43;;
2267;SDS011;11052;43.338;25.502;2022-10-28T08:00:31;3.00;;;1.20;;
2267;SDS011;11052;43.338;25.502;2022-10-28T08:02:58;3.17;;;1.23;;
2267;SDS011;11052;43.338;25.502;2022-10-28T08:05:28;3.10;;;2.90;;
2267;SDS011;11052;43.338;25.502;2022-10-28T08:07:56;6.40;;;1.80;;
2267;SDS011;11052;43.338;25.502;2022-10-28T08:10:23;1.30;;;1.10;;
2267;SDS011;11052;43.338;25.502;2022-10-28T08:12:51;2.40;;;1.00;;
2267;SDS011;11052;43.338;25.502;2022-10-28T08:15:21;1.63;;;1.30;;
2267;SDS011;11052;43.338;25.502;2022-10-28T08:17:49;1.53;;;1.20;;
2267;SDS011;11052;43.338;25.502;2022-10-28T08:20:17;5.97;;;1.73;;
2267;SDS011;11052;43.338;25.502;2022-10-28T08:22:46;2.30;;;1.70;;
2267;SDS011;11052;43.338;25.502;2022-10-28T08:25:14;1.43;;;0.90;;
2267;SDS011;11052;43.338;25.502;2022-10-28T08:27:42;1.47;;;1.10;;
2267;SDS011;11052;43.338;25.502;2022-10-28T08:30:09;1.20;;;0.80;;
2267;SDS011;11052;43.338;25.502;2022-10-28T08:32:37;7.13;;;2.00;;
2267;SDS011;11052;43.338;25.502;2022-10-28T08:35:05;0.97;;;0.87;;
2267;SDS011;11052;43.338;25.502;2022-10-28T08:37:33;3.00;;;1.67;;
2267;SDS011;11052;43.338;25.502;2022-10-28T08:40:02;2.00;;;1.40;;
2267;SDS011;11052;43.338;25.502;2022-10-28T08:42:33;3.13;;;1.90;;
2267;SDS011;11052;43.338;25.502;2022-10-28T08:45:16;2.33;;;1.80;;
2267;SDS011;11052;43.338;25.502;2022-10-28T08:47:52;1.20;;;1.10;;
2267;SDS011;11052;43.338;25.502;2022-10-28T08:50:28;2.40;;;1.17;;
2267;SDS011;11052;43.338;25.502;2022-10-28T08:52:58;2.37;;;2.20;;
2267;SDS011;11052;43.338;25.502;2022-10-28T08:55:33;3.03;;;1.00;;
2267;SDS011;11052;43.338;25.502;2022-10-28T08:58:05;1.50;;;1.33;;
2267;SDS011;11052;43.338;25.502;2022-10-28T09:00:36;2.00;;;1.17;;
2267;SDS011;11052;43.338;25.502;2022-10-28T09:03:07;1.47;;;1.20;;
2267;SDS011;11052;43.338;25.502;2022-10-28T09:05:42;1.83;;;1.63;;
2267;SDS011;11052;43.338;25.502;2022-10-28T09:08:14;2.17;;;1.10;;
2267;SDS011;11052;43.338;25.502;2022-10-28T09:10:55;1.90;;;1.40;;
2267;SDS011;11052;43.338;25.502;2022-10-28T09:13:46;0.80;;;0.60;;
2267;SDS011;11052;43.338;25.502;2022-10-28T09:16:25;1.40;;;0.93;;
2267;SDS011;11052;43.338;25.502;2022-10-28T09:19:02;1.30;;;1.20;;
2267;SDS011;11052;43.338;25.502;2022-10-28T09:21:40;1.30;;;1.00;;
2267;SDS011;11052;43.338;25.502;2022-10-28T09:24:13;1.37;;;1.20;;
2267;SDS011;11052;43.338;25.502;2022-10-28T09:26:48;1.30;;;0.90;;
2267;SDS011;11052;43.338;25.502;2022-10-28T09:29:30;2.00;;;1.30;;
2267;SDS011;11052;43.338;25.502;2022-10-28T09:32:07;1.23;;;0.90;;
2267;SDS011;11052;43.338;25.502;2022-10-28T09:34:42;1.90;;;1.20;;
2267;SDS011;11052;43.338;25.502;2022-10-28T09:37:13;2.17;;;1.27;;
2267;SDS011;11052;43.338;25.502;2022-10-28T09:39:45;2.50;;;0.93;;
2267;SDS011;11052;43.338;25.502;2022-10-28T09:42:18;1.00;;;0.90;;
2267;SDS011;11052;43.338;25.502;2022-10-28T09:44:51;0.80;;;0.50;;
2267;SDS011;11052;43.338;25.502;2022-10-28T09:47:24;5.83;;;1.23;;
2267;SDS011;11052;43.338;25.502;2022-10-28T09:49:55;1.20;;;1.10;;
2267;SDS011;11052;43.338;25.502;2022-10-28T09:52:28;1.40;;;1.20;;
2267;SDS011;11052;43.338;25.502;2022-10-28T09:55:01;2.37;;;0.87;;
2267;SDS011;11052;43.338;25.502;2022-10-28T09:57:34;1.33;;;0.60;;
2267;SDS011;11052;43.338;25.502;2022-10-28T10:00:01;1.13;;;0.90;;
2267;SDS011;11052;43.338;25.502;2022-10-28T10:02:29;0.83;;;0.70;;
2267;SDS011;11052;43.338;25.502;2022-10-28T10:05:00;1.80;;;0.60;;
2267;SDS011;11052;43.338;25.502;2022-10-28T10:07:30;2.60;;;0.80;;
2267;SDS011;11052;43.338;25.502;2022-10-28T10:10:03;1.00;;;0.60;;
2267;SDS011;11052;43.338;25.502;2022-10-28T10:12:39;1.10;;;1.00;;
2267;SDS011;11052;43.338;25.502;2022-10-28T10:15:07;1.40;;;1.00;;
2267;SDS011;11052;43.338;25.502;2022-10-28T10:17:41;1.17;;;0.90;;
2267;SDS011;11052;43.338;25.502;2022-10-28T10:20:11;0.80;;;0.80;;
2267;SDS011;11052;43.338;25.502;2022-10-28T10:22:40;2.03;;;0.90;;
2267;SDS011;11052;43.338;25.502;2022-10-28T10:25:22;1.83;;;1.00;;
2267;SDS011;11052;43.338;25.502;2022-10-28T10:27:55;0.90;;;0.70;;
2267;SDS011;11052;43.338;25.502;2022-10-28T10:30:25;2.40;;;1.13;;
2267;SDS011;11052;43.338;25.502;2022-10-28T10:32:55;2.17;;;1.27;;
2267;SDS011;11052;43.338;25.502;2022-10-28T10:35:24;2.10;;;1.93;;
2267;SDS011;11052;43.338;25.502;2022-10-28T10:37:54;1.10;;;0.93;;
2267;SDS011;11052;43.338;25.502;2022-10-28T10:40:24;0.90;;;0.73;;
2267;SDS011;11052;43.338;25.502;2022-10-28T10:42:57;1.33;;;0.70;;
2267;SDS011;11052;43.338;25.502;2022-10-28T10:45:47;0.80;;;0.60;;
2267;SDS011;11052;43.338;25.502;2022-10-28T10:48:17;2.90;;;1.10;;
2267;SDS011;11052;43.338;25.502;2022-10-28T10:50:45;2.10;;;1.00;;
2267;SDS011;11052;43.338;25.502;2022-10-28T10:53:15;1.57;;;1.20;;
2267;SDS011;11052;43.338;25.502;2022-10-28T10:55:48;0.80;;;0.50;;
2267;SDS011;11052;43.338;25.502;2022-10-28T10:58:18;1.00;;;0.80;;
2267;SDS011;11052;43.338;25.502;2022-10-28T11:00:48;1.20;;;0.67;;
2267;SDS011;11052;43.338;25.502;2022-10-28T11:25:53;0.90;;;0.73;;
2267;SDS011;11052;43.338;25.502;2022-10-28T11:28:37;1.47;;;0.90;;
2267;SDS011;11052;43.338;25.502;2022-10-28T11:31:20;6.43;;;0.87;;
2267;SDS011;11052;43.338;25.502;2022-10-28T11:34:25;2.07;;;0.70;;
2267;SDS011;11052;43.338;25.502;2022-10-28T11:37:12;1.00;;;0.70;;
2267;SDS011;11052;43.338;25.502;2022-10-28T11:39:48;7.07;;;2.03;;
2267;SDS011;11052;43.338;25.502;2022-10-28T11:42:29;0.93;;;0.80;;
2267;SDS011;11052;43.338;25.502;2022-10-28T11:45:04;0.90;;;0.70;;
2267;SDS011;11052;43.338;25.502;2022-10-28T11:47:41;1.23;;;1.10;;
2267;SDS011;11052;43.338;25.502;2022-10-28T11:50:26;0.93;;;0.83;;
2267;SDS011;11052;43.338;25.502;2022-10-28T11:53:04;1.50;;;1.00;;
2267;SDS011;11052;43.338;25.502;2022-10-28T11:55:51;0.97;;;0.70;;
2267;SDS011;11052;43.338;25.502;2022-10-28T11:58:30;1.00;;;0.70;;
2267;SDS011;11052;43.338;25.502;2022-10-28T12:01:08;1.10;;;1.00;;
2267;SDS011;11052;43.338;25.502;2022-10-28T12:03:54;1.20;;;0.63;;
2267;SDS011;11052;43.338;25.502;2022-10-28T12:06:41;0.80;;;0.70;;
2267;SDS011;11052;43.338;25.502;2022-10-28T12:09:35;0.90;;;0.80;;
2267;SDS011;11052;43.338;25.502;2022-10-28T12:12:14;1.00;;;0.70;;
2267;SDS011;11052;43.338;25.502;2022-10-28T12:14:53;1.33;;;0.60;;
2267;SDS011;11052;43.338;25.502;2022-10-28T12:17:27;1.60;;;1.07;;
2267;SDS011;11052;43.338;25.502;2022-10-28T12:20:04;2.17;;;1.30;;
2267;SDS011;11052;43.338;25.502;2022-10-28T12:22:39;1.00;;;0.57;;
2267;SDS011;11052;43.338;25.502;2022-10-28T12:25:13;1.00;;;0.70;;
2267;SDS011;11052;43.338;25.502;2022-10-28T12:27:47;0.80;;;0.60;;
2267;SDS011;11052;43.338;25.502;2022-10-28T12:30:19;0.83;;;0.77;;
2267;SDS011;11052;43.338;25.502;2022-10-28T12:32:50;1.00;;;0.90;;
2267;SDS011;11052;43.338;25.502;2022-10-28T12:35:20;1.07;;;0.90;;
2267;SDS011;11052;43.338;25.502;2022-10-28T12:37:51;0.80;;;0.50;;
2267;SDS011;11052;43.338;25.502;2022-10-28T12:40:24;1.20;;;1.10;;
2267;SDS011;11052;43.338;25.502;2022-10-28T12:42:56;0.90;;;0.70;;
2267;SDS011;11052;43.338;25.502;2022-10-28T12:45:28;1.10;;;0.80;;
2267;SDS011;11052;43.338;25.502;2022-10-28T12:48:03;1.17;;;0.90;;
2267;SDS011;11052;43.338;25.502;2022-10-28T12:50:41;2.70;;;0.90;;
2267;SDS011;11052;43.338;25.502;2022-10-28T12:53:20;0.93;;;0.67;;
2267;SDS011;11052;43.338;25.502;2022-10-28T12:55:57;1.03;;;0.70;;
2267;SDS011;11052;43.338;25.502;2022-10-28T12:58:28;1.97;;;1.33;;
2267;SDS011;11052;43.338;25.502;2022-10-28T13:01:02;1.73;;;0.90;;
2267;SDS011;11052;43.338;25.502;2022-10-28T13:03:34;1.00;;;0.70;;
2267;SDS011;11052;43.338;25.502;2022-10-28T13:06:06;1.27;;;0.70;;
2267;SDS011;11052;43.338;25.502;2022-10-28T13:09:10;1.00;;;0.80;;
2267;SDS011;11052;43.338;25.502;2022-10-28T13:18:20;1.63;;;1.03;;
2267;SDS011;11052;43.338;25.502;2022-10-28T13:21:14;1.93;;;1.00;;
2267;SDS011;11052;43.338;25.502;2022-10-28T13:23:56;0.80;;;0.60;;
2267;SDS011;11052;43.338;25.502;2022-10-28T13:26:30;0.90;;;0.80;;
2267;SDS011;11052;43.338;25.502;2022-10-28T13:29:00;1.13;;;0.70;;
2267;SDS011;11052;43.338;25.502;2022-10-28T13:31:34;1.00;;;0.80;;
2267;SDS011;11052;43.338;25.502;2022-10-28T13:34:06;0.97;;;0.70;;
2267;SDS011;11052;43.338;25.502;2022-10-28T13:36:35;3.07;;;1.13;;
2267;SDS011;11052;43.338;25.502;2022-10-28T13:39:20;1.77;;;0.70;;
2267;SDS011;11052;43.338;25.502;2022-10-28T13:41:50;0.90;;;0.73;;
2267;SDS011;11052;43.338;25.502;2022-10-28T13:44:56;1.10;;;0.90;;
2267;SDS011;11052;43.338;25.502;2022-10-28T13:47:28;1.10;;;0.70;;
2267;SDS011;11052;43.338;25.502;2022-10-28T13:59:20;0.90;;;0.60;;
2267;SDS011;11052;43.338;25.502;2022-10-28T14:04:51;1.00;;;0.90;;
2267;SDS011;11052;43.338;25.502;2022-10-28T14:07:21;0.80;;;0.73;;
2267;SDS011;11052;43.338;25.502;2022-10-28T14:09:55;0.80;;;0.53;;
2267;SDS011;11052;43.338;25.502;2022-10-28T14:12:29;1.07;;;0.80;;
2267;SDS011;11052;43.338;25.502;2022-10-28T14:15:02;1.87;;;1.37;;
2267;SDS011;11052;43.338;25.502;2022-10-28T14:17:34;1.93;;;0.73;;
2267;SDS011;11052;43.338;25.502;2022-10-28T14:20:05;0.70;;;0.50;;
2267;SDS011;11052;43.338;25.502;2022-10-28T14:22:47;1.00;;;0.73;;
2267;SDS011;11052;43.338;25.502;2022-10-28T14:31:31;0.97;;;0.67;;
2267;SDS011;11052;43.338;25.502;2022-10-28T14:34:24;0.70;;;0.50;;
2267;SDS011;11052;43.338;25.502;2022-10-28T14:37:01;1.07;;;0.87;;
2267;SDS011;11052;43.338;25.502;2022-10-28T14:39:54;1.10;;;0.70;;
2267;SDS011;11052;43.338;25.502;2022-10-28T14:42:51;2.30;;;1.23;;
2267;SDS011;11052;43.338;25.502;2022-10-28T14:45:30;1.47;;;0.60;;
2267;SDS011;11052;43.338;25.502;2022-10-28T14:48:12;1.30;;;0.73;;
2267;SDS011;11052;43.338;25.502;2022-10-28T14:50:51;1.70;;;1.27;;
2267;SDS011;11052;43.338;25.502;2022-10-28T14:53:23;1.00;;;0.83;;
2267;SDS011;11052;43.338;25.502;2022-10-28T14:55:56;0.87;;;0.70;;
2267;SDS011;11052;43.338;25.502;2022-10-28T14:58:29;1.30;;;0.90;;
2267;SDS011;11052;43.338;25.502;2022-10-28T15:01:06;1.20;;;0.77;;
2267;SDS011;11052;43.338;25.502;2022-10-28T15:03:44;0.97;;;0.67;;
2267;SDS011;11052;43.338;25.502;2022-10-28T15:06:27;2.47;;;0.90;;
2267;SDS011;11052;43.338;25.502;2022-10-28T15:09:02;0.83;;;0.60;;
2267;SDS011;11052;43.338;25.502;2022-10-28T15:11:31;1.00;;;0.90;;
2267;SDS011;11052;43.338;25.502;2022-10-28T15:14:10;0.80;;;0.70;;
2267;SDS011;11052;43.338;25.502;2022-10-28T15:16:45;1.00;;;0.67;;
2267;SDS011;11052;43.338;25.502;2022-10-28T15:19:14;1.57;;;0.73;;
2267;SDS011;11052;43.338;25.502;2022-10-28T15:21:43;1.43;;;0.97;;
2267;SDS011;11052;43.338;25.502;2022-10-28T15:24:25;6.97;;;0.70;;
2267;SDS011;11052;43.338;25.502;2022-10-28T15:26:53;1.73;;;1.10;;
2267;SDS011;11052;43.338;25.502;2022-10-28T15:29:20;5.00;;;1.40;;
2267;SDS011;11052;43.338;25.502;2022-10-28T15:34:36;0.80;;;0.70;;
2267;SDS011;11052;43.338;25.502;2022-10-28T15:37:03;1.67;;;0.90;;
2267;SDS011;11052;43.338;25.502;2022-10-28T15:39:31;1.00;;;0.70;;
2267;SDS011;11052;43.338;25.502;2022-10-28T15:41:59;1.83;;;1.70;;
2267;SDS011;11052;43.338;25.502;2022-10-28T15:44:30;1.57;;;1.47;;
2267;SDS011;11052;43.338;25.502;2022-10-28T15:47:01;0.80;;;0.70;;
2267;SDS011;11052;43.338;25.502;2022-10-28T15:49:42;1.03;;;0.87;;
2267;SDS011;11052;43.338;25.502;2022-10-28T15:52:20;2.33;;;2.10;;
2267;SDS011;11052;43.338;25.502;2022-10-28T15:54:57;0.80;;;0.77;;
2267;SDS011;11052;43.338;25.502;2022-10-28T15:57:26;1.43;;;1.33;;
2267;SDS011;11052;43.338;25.502;2022-10-28T16:02:56;2.13;;;2.03;;
2267;SDS011;11052;43.338;25.502;2022-10-28T16:08:22;1.97;;;1.87;;
2267;SDS011;11052;43.338;25.502;2022-10-28T16:10:52;2.40;;;1.27;;
2267;SDS011;11052;43.338;25.502;2022-10-28T16:13:22;1.70;;;1.60;;
2267;SDS011;11052;43.338;25.502;2022-10-28T16:15:53;0.90;;;0.80;;
2267;SDS011;11052;43.338;25.502;2022-10-28T16:18:23;1.23;;;1.13;;
2267;SDS011;11052;43.338;25.502;2022-10-28T16:20:54;1.40;;;1.30;;
2267;SDS011;11052;43.338;25.502;2022-10-28T16:23:23;3.50;;;1.97;;
2267;SDS011;11052;43.338;25.502;2022-10-28T16:25:57;98.27;;;44.40;;
2267;SDS011;11052;43.338;25.502;2022-10-28T16:28:25;103.60;;;54.57;;
2267;SDS011;11052;43.338;25.502;2022-10-28T16:30:53;31.43;;;18.30;;
2267;SDS011;11052;43.338;25.502;2022-10-28T16:33:23;21.87;;;8.73;;
2267;SDS011;11052;43.338;25.502;2022-10-28T16:35:56;9.47;;;6.70;;
2267;SDS011;11052;43.338;25.502;2022-10-28T16:38:23;10.23;;;4.13;;
2267;SDS011;11052;43.338;25.502;2022-10-28T16:40:51;3.50;;;2.37;;
2267;SDS011;11052;43.338;25.502;2022-10-28T16:43:22;3.87;;;3.57;;
2267;SDS011;11052;43.338;25.502;2022-10-28T16:45:53;5.37;;;3.27;;
2267;SDS011;11052;43.338;25.502;2022-10-28T16:48:22;3.00;;;1.77;;
2267;SDS011;11052;43.338;25.502;2022-10-28T16:50:51;3.67;;;3.27;;
2267;SDS011;11052;43.338;25.502;2022-10-28T16:53:22;9.83;;;5.07;;
2267;SDS011;11052;43.338;25.502;2022-10-28T16:55:49;6.47;;;5.20;;
2267;SDS011;11052;43.338;25.502;2022-10-28T16:58:18;5.93;;;5.33;;
2267;SDS011;11052;43.338;25.502;2022-10-28T17:00:45;4.90;;;4.40;;
2267;SDS011;11052;43.338;25.502;2022-10-28T17:03:12;4.30;;;3.53;;
2267;SDS011;11052;43.338;25.502;2022-10-28T17:05:40;6.97;;;3.40;;
2267;SDS011;11052;43.338;25.502;2022-10-28T17:08:08;5.10;;;4.10;;
2267;SDS011;11052;43.338;25.502;2022-10-28T17:10:37;4.20;;;3.90;;
2267;SDS011;11052;43.338;25.502;2022-10-28T17:13:05;2.33;;;2.13;;
2267;SDS011;11052;43.338;25.502;2022-10-28T17:15:33;24.10;;;13.80;;
2267;SDS011;11052;43.338;25.502;2022-10-28T17:18:00;15.20;;;11.23;;
2267;SDS011;11052;43.338;25.502;2022-10-28T17:20:27;41.87;;;25.47;;
2267;SDS011;11052;43.338;25.502;2022-10-28T17:22:54;14.03;;;8.73;;
2267;SDS011;11052;43.338;25.502;2022-10-28T17:25:23;13.70;;;6.80;;
2267;SDS011;11052;43.338;25.502;2022-10-28T17:27:52;4.67;;;4.33;;
2267;SDS011;11052;43.338;25.502;2022-10-28T17:30:19;4.60;;;3.77;;